createdAt,value
2023-01-31T00:00:34.087Z,-1.29
2023-01-31T00:03:40.389Z,-1.34
2023-01-31T00:06:51.678Z,-1.66
2023-01-31T00:09:57.489Z,-1.60
2023-01-31T00:13:06.788Z,-1.59
2023-01-31T00:16:14.596Z,-1.77
2023-01-31T00:19:21.266Z,-1.69
2023-01-31T00:22:26.804Z,-1.75
2023-01-31T00:25:33.081Z,-1.66
2023-01-31T00:28:41.698Z,-1.76
2023-01-31T00:31:48.146Z,-1.81
2023-01-31T00:34:56.708Z,-1.81
2023-01-31T00:38:03.163Z,-1.87
2023-01-31T00:41:09.760Z,-1.89
2023-01-31T00:44:18.998Z,-1.81
2023-01-31T00:47:24.551Z,-1.74
2023-01-31T00:50:30.957Z,-1.68
2023-01-31T00:53:37.033Z,-1.64
2023-01-31T00:56:44.996Z,-1.62
2023-01-31T00:59:53.211Z,-1.75
2023-01-31T01:03:00.815Z,-1.65
2023-01-31T01:06:08.587Z,-1.59
2023-01-31T01:09:14.956Z,-1.59
2023-01-31T01:12:20.588Z,-1.54
2023-01-31T01:15:29.832Z,-1.51
2023-01-31T01:18:36.179Z,-1.69
2023-01-31T01:21:44.692Z,-1.66
2023-01-31T01:24:50.093Z,-1.57
2023-01-31T01:27:56.301Z,-1.31
2023-01-31T01:31:09.178Z,-1.40
2023-01-31T01:34:20.145Z,-1.23
2023-01-31T01:37:25.604Z,-1.54
2023-01-31T01:40:39.435Z,-1.33
2023-01-31T01:43:48.049Z,-1.23
2023-01-31T01:46:57.946Z,-1.41
2023-01-31T01:50:14.581Z,-1.48
2023-01-31T01:53:27.169Z,-1.32
2023-01-31T01:56:41.175Z,-1.24
2023-01-31T01:59:58.543Z,-1.13
2023-01-31T02:03:10.955Z,-1.04
2023-01-31T02:06:18.106Z,-0.97
2023-01-31T02:09:36.269Z,-0.91
2023-01-31T02:12:45.579Z,-0.79
2023-01-31T02:15:52.486Z,-0.81
2023-01-31T02:19:02.545Z,-0.73
2023-01-31T02:22:24.872Z,-0.76
2023-01-31T02:26:26.292Z,-0.89
2023-01-31T02:30:15.187Z,-0.85
2023-01-31T02:33:35.619Z,-1.12
2023-01-31T02:37:04.983Z,-1.03
2023-01-31T02:40:25.487Z,-1.09
2023-01-31T02:44:00.162Z,-1.24
2023-01-31T02:47:21.359Z,-1.28
2023-01-31T02:50:41.490Z,-1.37
2023-01-31T02:53:56.584Z,-1.40
2023-01-31T02:57:00.331Z,-1.59
2023-01-31T03:00:07.993Z,-1.55
2023-01-31T03:03:25.669Z,-1.60
2023-01-31T03:07:07.056Z,-1.63
2023-01-31T03:10:42.055Z,-1.65
2023-01-31T03:14:04.110Z,-1.64
2023-01-31T03:17:33.307Z,-1.60
2023-01-31T03:20:52.556Z,-1.78
2023-01-31T03:24:03.317Z,-1.81
2023-01-31T03:27:11.940Z,-2.08
2023-01-31T03:30:29.473Z,-2.32
2023-01-31T03:33:45.428Z,-2.57
2023-01-31T03:37:00.663Z,-2.44
2023-01-31T03:40:35.097Z,-2.39
2023-01-31T03:43:54.077Z,-2.36
2023-01-31T03:47:08.639Z,-2.33
2023-01-31T03:50:24.324Z,-2.39
2023-01-31T03:53:39.137Z,-2.25
2023-01-31T03:57:01.558Z,-2.22
2023-01-31T04:00:15.666Z,-2.11
2023-01-31T04:03:38.499Z,-2.23
2023-01-31T04:06:44.199Z,-2.27
2023-01-31T04:09:50.660Z,-2.12
2023-01-31T04:12:58.836Z,-2.03
2023-01-31T04:16:05.331Z,-1.98
2023-01-31T04:19:10.825Z,-2.02
2023-01-31T04:22:17.644Z,-1.92
2023-01-31T04:25:23.378Z,-1.84
2023-01-31T04:28:32.776Z,-1.87
2023-01-31T04:31:39.855Z,-1.85
2023-01-31T04:34:46.106Z,-1.73
2023-01-31T04:37:51.542Z,-1.80
2023-01-31T04:40:57.747Z,-1.68
2023-01-31T04:44:06.131Z,-1.84
2023-01-31T04:47:12.713Z,-2.07
2023-01-31T04:50:18.714Z,-2.04
2023-01-31T04:53:24.971Z,-2.04
2023-01-31T04:56:30.412Z,-2.04
2023-01-31T04:59:39.415Z,-2.14
2023-01-31T05:02:44.855Z,-2.06
2023-01-31T05:05:51.636Z,-2.17
2023-01-31T05:09:01.617Z,-2.10
2023-01-31T05:12:08.517Z,-2.12
2023-01-31T05:15:17.700Z,-1.99
2023-01-31T05:18:24.226Z,-2.04
2023-01-31T05:21:29.682Z,-2.09
2023-01-31T05:24:37.530Z,-2.05
2023-01-31T05:27:45.049Z,-1.99
2023-01-31T05:30:54.727Z,-1.88
2023-01-31T05:34:00.222Z,-1.89
2023-01-31T05:37:07.190Z,-2.13
2023-01-31T05:40:15.341Z,-2.28
2023-01-31T05:43:21.855Z,-2.27
2023-01-31T05:46:30.170Z,-2.25
2023-01-31T05:49:36.857Z,-2.15
2023-01-31T05:52:42.738Z,-2.11
2023-01-31T05:55:50.086Z,-2.14
2023-01-31T05:58:55.624Z,-2.00
2023-01-31T06:02:05.364Z,-1.96
2023-01-31T06:05:12.706Z,-2.16
2023-01-31T06:08:19.039Z,-2.20
2023-01-31T06:11:25.419Z,-2.13
2023-01-31T06:14:32.485Z,-2.21
2023-01-31T06:17:40.664Z,-2.13
2023-01-31T06:20:46.890Z,-2.09
2023-01-31T06:23:52.324Z,-2.12
2023-01-31T06:26:58.613Z,-2.10
2023-01-31T06:30:04.721Z,-2.20
2023-01-31T06:33:15.148Z,-2.25
2023-01-31T06:36:20.873Z,-2.07
2023-01-31T06:39:27.455Z,-2.01
2023-01-31T06:42:32.881Z,-2.19
2023-01-31T06:45:39.289Z,-2.11
2023-01-31T06:48:48.543Z,-2.14
2023-01-31T06:51:54.773Z,-2.41
2023-01-31T06:55:00.224Z,-1.87
2023-01-31T06:58:06.539Z,-1.89
2023-01-31T07:01:14.476Z,-2.13
2023-01-31T07:04:23.787Z,-2.01
2023-01-31T07:07:29.162Z,-2.04
2023-01-31T07:10:35.756Z,-2.08
2023-01-31T07:13:41.857Z,-2.10
2023-01-31T07:16:48.117Z,-1.94
2023-01-31T07:19:56.235Z,-1.89
2023-01-31T07:23:03.596Z,-1.85
2023-01-31T07:26:09.647Z,-1.77
2023-01-31T07:29:18.001Z,-1.66
2023-01-31T07:32:23.459Z,-1.78
2023-01-31T07:35:33.386Z,-1.98
2023-01-31T07:38:39.129Z,-1.78
2023-01-31T07:41:45.494Z,-1.58
2023-01-31T07:44:52.318Z,-1.67
2023-01-31T07:48:02.036Z,-1.67
2023-01-31T07:51:11.163Z,-1.68
2023-01-31T07:54:18.171Z,-1.51
2023-01-31T07:57:23.844Z,-1.78
2023-01-31T08:00:46.037Z,-1.68
2023-01-31T08:03:52.212Z,-1.65
2023-01-31T08:07:03.220Z,-1.61
2023-01-31T08:10:10.152Z,-1.49
2023-01-31T08:13:16.650Z,-1.48
2023-01-31T08:16:22.396Z,-1.49
2023-01-31T08:19:29.445Z,-1.42
2023-01-31T08:22:37.780Z,-1.39
2023-01-31T08:25:44.861Z,-1.36
2023-01-31T08:28:54.113Z,-1.33
2023-01-31T08:32:00.958Z,-1.31
2023-01-31T08:35:07.798Z,-1.58
2023-01-31T08:38:16.954Z,-1.86
2023-01-31T08:41:25.543Z,-1.69
2023-01-31T08:44:31.762Z,-1.60
2023-01-31T08:47:37.551Z,-1.60
2023-01-31T08:50:43.785Z,-1.58
2023-01-31T08:53:54.374Z,-1.62
2023-01-31T08:57:00.565Z,-1.50
2023-01-31T09:00:07.035Z,-1.69
2023-01-31T09:03:19.883Z,-1.48
2023-01-31T09:06:30.300Z,-1.47
2023-01-31T09:09:39.584Z,-1.53
2023-01-31T09:12:45.015Z,-1.62
2023-01-31T09:16:00.137Z,-1.60
2023-01-31T09:19:05.590Z,-1.50
2023-01-31T09:22:11.867Z,-1.36
2023-01-31T09:25:30.389Z,-1.56
2023-01-31T09:28:45.671Z,-1.36
2023-01-31T09:31:54.590Z,-1.26
2023-01-31T09:35:00.886Z,-1.32
2023-01-31T09:38:06.324Z,-1.36
2023-01-31T09:41:26.829Z,-1.31
2023-01-31T09:44:40.659Z,-1.21
2023-01-31T09:47:55.945Z,-1.27
2023-01-31T09:51:02.770Z,-1.37
2023-01-31T09:54:22.518Z,-1.09
2023-01-31T09:57:52.297Z,-0.96
2023-01-31T10:01:16.315Z,-1.01
2023-01-31T10:05:00.913Z,-1.08
2023-01-31T10:08:21.176Z,-1.23
2023-01-31T10:11:38.932Z,-1.25
2023-01-31T10:14:54.355Z,-1.09
2023-01-31T10:18:08.586Z,-1.22
2023-01-31T10:21:22.191Z,-1.01
2023-01-31T10:24:39.654Z,-1.08
2023-01-31T10:27:53.646Z,-1.20
2023-01-31T10:31:14.152Z,-1.28
2023-01-31T10:34:30.342Z,-1.36
2023-01-31T10:37:46.982Z,-1.43
2023-01-31T10:41:05.454Z,-1.34
2023-01-31T10:44:27.821Z,-1.39
2023-01-31T10:47:41.001Z,-1.47
2023-01-31T10:51:05.243Z,-1.45
2023-01-31T10:54:42.014Z,-1.42
2023-01-31T10:57:48.964Z,-1.31
2023-01-31T11:00:56.974Z,-1.29
2023-01-31T11:04:08.711Z,-1.38
2023-01-31T11:07:15.674Z,-1.17
2023-01-31T11:10:27.560Z,-1.10
2023-01-31T11:13:33.849Z,-1.17
2023-01-31T11:16:44.089Z,-1.10
2023-01-31T11:19:58.958Z,-0.94
2023-01-31T11:23:09.967Z,-0.92
2023-01-31T11:26:16.894Z,-0.71
2023-01-31T11:29:31.227Z,-0.82
2023-01-31T11:32:40.718Z,-0.74
2023-01-31T11:35:55.619Z,-0.54
2023-01-31T11:39:01.846Z,-0.50
2023-01-31T11:42:16.214Z,-0.43
2023-01-31T11:45:27.858Z,-0.31
2023-01-31T11:48:44.804Z,-0.37
2023-01-31T11:51:55.246Z,-0.45
2023-01-31T11:55:06.083Z,-0.56
2023-01-31T11:58:24.116Z,-0.72
2023-01-31T12:01:32.076Z,-0.84
2023-01-31T12:04:46.440Z,-1.08
2023-01-31T12:07:57.404Z,-1.07
2023-01-31T12:11:09.001Z,-1.02
2023-01-31T12:14:20.545Z,-1.05
2023-01-31T12:17:27.068Z,-0.93
2023-01-31T12:20:51.971Z,-0.72
2023-01-31T12:24:22.048Z,-0.72
2023-01-31T12:27:54.615Z,-0.72
2023-01-31T12:31:28.436Z,-0.61
2023-01-31T12:35:10.070Z,-0.31
2023-01-31T12:38:55.823Z,-0.25
2023-01-31T12:42:34.543Z,-0.47
2023-01-31T12:46:11.956Z,-0.43
2023-01-31T12:50:01.311Z,-0.40
2023-01-31T12:53:43.396Z,-0.32
2023-01-31T12:57:16.922Z,-0.25
2023-01-31T13:00:42.844Z,-0.26
2023-01-31T13:04:16.682Z,-0.28
2023-01-31T13:07:35.890Z,-0.19
2023-01-31T13:10:49.633Z,-0.41
2023-01-31T13:14:05.961Z,-0.19
2023-01-31T13:17:20.780Z,-0.45
2023-01-31T13:20:41.126Z,-0.92
2023-01-31T13:23:53.929Z,-0.26
2023-01-31T13:27:09.251Z,-0.05
2023-01-31T13:30:30.893Z,0.03
2023-01-31T13:33:43.636Z,0.10
2023-01-31T13:36:56.704Z,0.22
2023-01-31T13:40:19.611Z,0.27
2023-01-31T13:43:25.306Z,0.23
2023-01-31T13:46:45.907Z,0.23
2023-01-31T13:49:58.963Z,0.25
2023-01-31T13:53:15.536Z,0.05
2023-01-31T13:56:30.547Z,0.06
2023-01-31T13:59:41.031Z,0.15
2023-01-31T14:03:04.330Z,0.16
2023-01-31T14:06:10.727Z,0.11
2023-01-31T14:09:28.633Z,0.00
2023-01-31T14:12:38.966Z,-0.02
2023-01-31T14:15:53.484Z,0.15
2023-01-31T14:19:02.905Z,0.55
2023-01-31T14:22:19.742Z,1.22
2023-01-31T14:25:45.290Z,1.47
2023-01-31T14:28:50.995Z,1.49
2023-01-31T14:32:01.563Z,1.27
2023-01-31T14:35:52.178Z,1.01
2023-01-31T14:39:49.098Z,0.74
2023-01-31T14:43:27.972Z,0.56
2023-01-31T14:47:19.391Z,0.52
2023-01-31T14:50:55.842Z,0.43
2023-01-31T14:54:43.740Z,0.32
2023-01-31T14:57:56.548Z,0.24
2023-01-31T15:01:09.541Z,0.01
2023-01-31T15:04:28.193Z,-0.18
2023-01-31T15:07:37.584Z,-0.33
2023-01-31T15:11:05.061Z,-0.48
2023-01-31T15:14:36.508Z,-0.46
2023-01-31T15:17:42.477Z,-0.55
2023-01-31T15:20:57.007Z,-0.62
2023-01-31T15:24:08.199Z,-0.77
2023-01-31T15:27:24.847Z,-0.81
2023-01-31T15:30:40.595Z,-0.83
2023-01-31T15:33:54.430Z,-0.82
2023-01-31T15:37:12.839Z,-0.84
2023-01-31T15:40:28.941Z,-0.86
2023-01-31T15:43:39.037Z,-0.80
2023-01-31T15:46:48.270Z,-0.81
2023-01-31T15:49:53.732Z,-0.79
2023-01-31T15:53:04.798Z,-0.78
2023-01-31T15:56:25.026Z,-0.77
2023-01-31T15:59:36.706Z,-0.70
2023-01-31T16:02:43.153Z,-0.68
2023-01-31T16:05:55.521Z,-0.74
2023-01-31T16:09:04.412Z,-0.72
2023-01-31T16:12:16.494Z,-0.68
2023-01-31T16:15:28.151Z,-0.55
2023-01-31T16:18:36.774Z,-0.50
2023-01-31T16:21:46.336Z,-0.52
2023-01-31T16:24:58.378Z,-0.49
2023-01-31T16:28:09.455Z,-0.52
2023-01-31T16:31:21.831Z,-0.50
2023-01-31T16:34:33.715Z,-0.51
2023-01-31T16:37:43.626Z,-0.55
2023-01-31T16:40:56.072Z,-0.61
2023-01-31T16:44:06.467Z,-0.74
2023-01-31T16:47:36.555Z,-0.81
2023-01-31T16:50:44.090Z,-0.93
2023-01-31T16:53:49.548Z,-1.12
2023-01-31T16:57:24.373Z,-1.19
2023-01-31T17:00:40.026Z,-1.30
2023-01-31T17:04:04.898Z,-1.34
2023-01-31T17:07:20.698Z,-1.39
2023-01-31T17:10:31.149Z,-1.35
2023-01-31T17:13:36.668Z,-1.34
2023-01-31T17:16:47.158Z,-1.33
2023-01-31T17:19:52.534Z,-1.25
2023-01-31T17:23:03.090Z,-1.29
2023-01-31T17:26:09.008Z,-1.31
2023-01-31T17:29:15.908Z,-1.35
2023-01-31T17:32:24.639Z,-1.40
2023-01-31T17:35:37.761Z,-1.52
2023-01-31T17:38:43.599Z,-1.51
2023-01-31T17:41:50.202Z,-1.62
2023-01-31T17:44:55.630Z,-1.60
2023-01-31T17:48:04.847Z,-1.63
2023-01-31T17:51:13.116Z,-1.68
2023-01-31T17:54:19.414Z,-1.70
2023-01-31T17:57:24.807Z,-1.67
2023-01-31T18:00:31.065Z,-1.67
2023-01-31T18:03:39.407Z,-1.66
2023-01-31T18:06:45.675Z,-1.63
2023-01-31T18:09:51.131Z,-1.58
2023-01-31T18:12:57.671Z,-1.53
2023-01-31T18:16:08.605Z,-2.64
2023-01-31T18:19:17.700Z,-1.52
2023-01-31T18:22:23.600Z,-1.53
2023-01-31T18:25:30.970Z,-1.57
2023-01-31T18:28:38.560Z,-1.46
2023-01-31T18:31:44.815Z,-1.42
2023-01-31T18:34:53.089Z,-1.57
2023-01-31T18:37:59.378Z,-1.57
2023-01-31T18:41:09.761Z,-1.64
2023-01-31T18:44:16.187Z,-1.68
2023-01-31T18:47:21.888Z,-1.62
2023-01-31T18:50:31.145Z,-1.69
2023-01-31T18:53:37.192Z,-1.65
2023-01-31T18:56:43.698Z,-1.71
2023-01-31T18:59:49.123Z,-1.76
2023-01-31T19:02:57.426Z,-1.65
2023-01-31T19:06:11.183Z,-1.63
2023-01-31T19:09:17.520Z,-1.61
2023-01-31T19:12:23.003Z,-1.61
2023-01-31T19:15:29.410Z,-1.46
2023-01-31T19:18:35.547Z,-1.44
2023-01-31T19:21:45.227Z,-1.44
2023-01-31T19:24:50.687Z,-1.36
2023-01-31T19:28:00.324Z,-1.28
2023-01-31T19:31:08.669Z,-1.25
2023-01-31T19:34:15.278Z,-1.26
2023-01-31T19:37:24.209Z,-1.24
2023-01-31T19:40:30.675Z,-1.18
2023-01-31T19:43:36.402Z,-1.12
2023-01-31T19:46:44.166Z,-1.07
2023-01-31T19:49:49.743Z,-1.06
2023-01-31T19:52:58.931Z,-1.06
2023-01-31T19:56:04.440Z,-1.09
2023-01-31T19:59:12.025Z,-1.05
2023-01-31T20:02:17.928Z,-1.21
2023-01-31T20:05:24.775Z,-1.20
2023-01-31T20:08:33.928Z,-1.41
2023-01-31T20:11:40.226Z,-1.37
2023-01-31T20:14:45.623Z,-1.42
2023-01-31T20:17:52.282Z,-1.43
2023-01-31T20:20:58.190Z,-1.41
2023-01-31T20:24:07.734Z,-1.43
2023-01-31T20:27:13.663Z,-1.47
2023-01-31T20:30:23.593Z,-1.44
2023-01-31T20:33:29.421Z,-1.38
2023-01-31T20:36:35.803Z,-1.32
2023-01-31T20:39:44.378Z,-1.41
2023-01-31T20:42:50.790Z,-1.36
2023-01-31T20:45:56.722Z,-1.38
2023-01-31T20:49:03.064Z,-1.43
2023-01-31T20:52:08.757Z,-1.45
2023-01-31T20:55:17.930Z,-1.43
2023-01-31T20:58:23.434Z,-1.47
2023-01-31T21:01:30.085Z,-1.53
2023-01-31T21:04:35.678Z,-1.58
2023-01-31T21:07:42.005Z,-1.64
2023-01-31T21:10:56.772Z,-1.61
2023-01-31T21:14:03.012Z,-1.60
2023-01-31T21:17:08.396Z,-1.55
2023-01-31T21:20:16.198Z,-1.49
2023-01-31T21:23:21.585Z,-1.44
2023-01-31T21:26:30.770Z,-1.38
2023-01-31T21:29:36.302Z,-1.35
2023-01-31T21:32:42.750Z,-1.27
2023-01-31T21:35:48.474Z,-1.31
2023-01-31T21:38:56.547Z,-1.32
2023-01-31T21:42:21.518Z,-1.30
2023-01-31T21:48:58.988Z,-1.29
2023-01-31T21:52:05.826Z,-1.16
2023-01-31T21:55:11.504Z,-1.14
2023-01-31T21:58:17.997Z,-1.06
2023-01-31T22:01:27.067Z,-1.09
2023-01-31T22:04:36.548Z,-1.18
2023-01-31T22:07:41.994Z,-1.19
2023-01-31T22:10:48.289Z,-1.13
2023-01-31T22:13:56.474Z,-1.60
2023-01-31T22:17:02.732Z,-1.14
2023-01-31T22:20:15.948Z,-1.19
2023-01-31T22:23:22.290Z,-1.22
2023-01-31T22:26:32.363Z,-1.16
2023-01-31T22:29:38.678Z,-1.14
2023-01-31T22:32:44.123Z,-1.05
2023-01-31T22:35:53.276Z,-1.09
2023-01-31T22:38:58.910Z,-1.13
2023-01-31T22:42:05.147Z,-1.08
2023-01-31T22:45:11.845Z,-1.09
2023-01-31T22:48:20.811Z,-1.01
2023-01-31T22:51:31.801Z,-0.94
2023-01-31T22:54:38.052Z,-0.86
2023-01-31T22:57:43.433Z,-0.84
2023-01-31T23:00:51.282Z,-0.81
2023-01-31T23:04:00.808Z,-0.82
2023-01-31T23:07:10.863Z,-0.87
2023-01-31T23:10:16.294Z,-0.92
2023-01-31T23:13:22.502Z,-0.86
2023-01-31T23:16:49.890Z,-0.83
2023-01-31T23:19:56.165Z,-0.96
2023-01-31T23:23:04.503Z,-0.89
2023-01-31T23:26:10.804Z,-0.99
2023-01-31T23:29:16.342Z,-1.09
2023-01-31T23:32:22.658Z,-1.25
2023-01-31T23:35:28.090Z,-1.36
2023-01-31T23:38:37.082Z,-1.37
2023-01-31T23:41:42.626Z,-1.34
2023-01-31T23:44:48.856Z,-1.31
2023-01-31T23:47:54.550Z,-1.30
2023-01-31T23:51:06.494Z,-1.21
2023-01-31T23:54:14.842Z,-1.31
2023-01-31T23:57:21.079Z,-1.25
